createdAt,value
2022-09-20T00:04:01.470Z,101008.97
2022-09-20T00:09:03.628Z,101018.84
2022-09-20T00:14:03.089Z,101018.66
2022-09-20T00:19:05.515Z,101024.50
2022-09-20T00:24:04.786Z,101004.66
2022-09-20T00:29:04.663Z,101013.47
2022-09-20T00:34:23.910Z,101002.16
2022-09-20T00:39:22.885Z,101000.38
2022-09-20T00:44:44.595Z,101024.88
2022-09-20T00:49:43.177Z,101020.66
2022-09-20T00:54:41.700Z,101004.00
2022-09-20T00:59:44.762Z,101022.28
2022-09-20T01:04:44.441Z,101016.47
2022-09-20T01:09:46.231Z,100989.84
2022-09-20T01:14:48.885Z,100993.44
2022-09-20T01:19:47.623Z,101003.38
2022-09-20T01:25:05.213Z,100963.88
2022-09-20T01:30:10.225Z,100991.28
2022-09-20T01:35:11.865Z,100966.53
2022-09-20T01:40:32.161Z,100969.16
2022-09-20T01:45:35.375Z,100971.28
2022-09-20T01:50:42.309Z,101001.84
2022-09-20T01:55:44.525Z,101006.31
2022-09-20T02:00:56.162Z,101006.78
2022-09-20T02:06:17.373Z,101002.84
2022-09-20T02:11:19.671Z,100999.59
2022-09-20T02:16:26.025Z,101007.97
2022-09-20T02:21:46.390Z,100996.97
2022-09-20T02:27:22.793Z,101008.91
2022-09-20T02:32:54.424Z,101012.88
2022-09-20T02:38:34.459Z,101013.66
2022-09-20T02:43:39.044Z,101012.69
2022-09-20T02:48:48.904Z,100995.50
2022-09-20T02:54:14.130Z,100980.81
2022-09-20T02:59:33.928Z,101017.25
2022-09-20T03:04:58.300Z,101015.28
2022-09-20T03:09:56.649Z,101026.75
2022-09-20T03:15:35.115Z,101035.75
2022-09-20T03:20:34.939Z,101025.13
2022-09-20T03:25:57.030Z,101026.91
2022-09-20T03:31:30.254Z,101035.44
2022-09-20T03:36:44.555Z,101037.53
2022-09-20T03:42:44.574Z,101032.59
2022-09-20T03:48:31.501Z,101013.50
2022-09-20T03:54:03.539Z,101031.50
2022-09-20T03:59:14.966Z,101018.59
2022-09-20T04:04:36.790Z,101005.31
2022-09-20T04:09:42.205Z,101019.03
2022-09-20T04:15:21.155Z,101017.56
2022-09-20T04:20:40.905Z,101055.19
2022-09-20T04:25:45.813Z,101026.72
2022-09-20T04:30:44.457Z,101054.38
2022-09-20T04:36:35.627Z,101045.72
2022-09-20T04:41:53.827Z,101071.22
2022-09-20T04:47:15.997Z,101069.22
2022-09-20T04:52:39.878Z,101078.72
2022-09-20T04:58:15.812Z,101072.50
2022-09-20T05:03:38.954Z,101077.28
2022-09-20T05:08:58.888Z,101072.81
2022-09-20T05:14:14.597Z,101039.63
2022-09-20T05:19:37.528Z,101098.63
2022-09-20T05:25:02.411Z,101106.16
2022-09-20T05:30:27.322Z,101114.50
2022-09-20T05:35:54.839Z,101075.91
2022-09-20T05:41:32.909Z,101118.47
2022-09-20T05:46:41.076Z,101113.06
2022-09-20T05:52:03.312Z,101115.69
2022-09-20T05:57:20.699Z,101127.16
2022-09-20T06:02:52.422Z,101130.72
2022-09-20T06:08:19.413Z,101126.38
2022-09-20T06:13:40.106Z,101127.16
2022-09-20T06:18:49.499Z,101082.06
2022-09-20T06:23:55.227Z,101100.63
2022-09-20T06:28:58.522Z,101145.19
2022-09-20T06:34:29.633Z,101148.34
2022-09-20T06:40:14.563Z,101152.00
2022-09-20T06:45:15.065Z,101139.63
2022-09-20T06:50:16.534Z,101120.78
2022-09-20T06:55:29.702Z,101162.84
2022-09-20T07:00:28.893Z,101129.94
2022-09-20T07:05:30.594Z,101144.91
2022-09-20T07:10:29.285Z,101144.56
2022-09-20T07:15:30.952Z,101119.63
2022-09-20T07:20:33.742Z,101135.50
2022-09-20T07:25:32.570Z,101143.63
2022-09-20T07:30:33.420Z,101139.25
2022-09-20T07:35:36.488Z,101162.13
2022-09-20T07:40:34.939Z,101146.28
2022-09-20T07:45:38.846Z,101133.44
2022-09-20T07:50:36.897Z,101146.00
2022-09-20T07:55:38.069Z,101142.66
2022-09-20T08:00:40.178Z,101140.56
2022-09-20T08:05:41.203Z,101155.72
2022-09-20T08:10:42.513Z,101144.53
2022-09-20T08:15:42.253Z,101126.72
2022-09-20T08:20:42.337Z,101141.00
2022-09-20T08:25:41.337Z,101098.06
2022-09-20T08:30:39.753Z,101139.50
2022-09-20T08:35:40.304Z,101122.25
2022-09-20T08:40:39.555Z,101109.34
2022-09-20T08:45:38.907Z,101093.44
2022-09-20T08:50:40.875Z,101109.97
2022-09-20T08:55:43.816Z,101092.91
2022-09-20T09:00:47.358Z,101107.34
2022-09-20T09:05:55.340Z,101057.56
2022-09-20T09:11:10.408Z,101054.13
2022-09-20T09:16:15.404Z,101072.63
2022-09-20T09:21:26.023Z,101062.03
2022-09-20T09:26:25.316Z,101059.06
2022-09-20T09:31:26.370Z,101040.34
2022-09-20T09:36:29.422Z,101050.22
2022-09-20T09:41:36.050Z,101073.63
2022-09-20T09:46:35.501Z,101042.44
2022-09-20T09:51:34.275Z,101048.94
2022-09-20T09:56:52.256Z,101057.22
2022-09-20T10:02:14.357Z,101050.91
2022-09-20T10:07:28.420Z,101056.84
2022-09-20T10:12:36.304Z,101052.13
2022-09-20T10:17:47.384Z,101051.16
2022-09-20T10:23:34.439Z,101060.25
2022-09-20T10:28:49.526Z,101045.69
2022-09-20T10:34:02.874Z,101045.47
2022-09-20T10:39:13.037Z,101026.53
2022-09-20T10:44:18.521Z,101039.94
2022-09-20T10:49:35.299Z,101033.31
2022-09-20T10:55:08.985Z,101043.13
2022-09-20T11:00:29.699Z,101035.22
2022-09-20T11:05:47.138Z,101021.34
2022-09-20T11:10:50.692Z,101017.00
2022-09-20T11:16:14.710Z,100981.59
2022-09-20T11:21:39.009Z,101010.88
2022-09-20T11:26:56.127Z,100993.31
2022-09-20T11:32:04.480Z,100986.66
2022-09-20T11:37:03.819Z,100990.88
2022-09-20T11:42:05.068Z,100990.19
2022-09-20T11:47:36.664Z,100972.59
2022-09-20T11:52:41.409Z,100992.53
2022-09-20T11:57:41.585Z,100946.88
2022-09-20T12:02:50.260Z,100946.00
2022-09-20T12:07:53.717Z,100986.81
2022-09-20T12:13:18.501Z,100934.56
2022-09-20T12:18:35.882Z,100983.06
2022-09-20T12:23:43.130Z,100978.69
2022-09-20T12:28:43.373Z,100932.63
2022-09-20T12:34:06.987Z,100974.38
2022-09-20T12:39:11.319Z,100979.88
2022-09-20T12:44:50.691Z,100978.34
2022-09-20T12:50:11.753Z,100963.75
2022-09-20T12:55:12.120Z,100945.25
2022-09-20T13:00:41.416Z,100927.63
2022-09-20T13:05:46.084Z,100948.47
2022-09-20T13:10:51.564Z,100935.31
2022-09-20T13:15:54.511Z,100950.75
2022-09-20T13:20:56.097Z,100936.91
2022-09-20T13:25:57.751Z,100937.59
2022-09-20T13:31:21.668Z,100974.75
2022-09-20T13:36:22.640Z,100970.59
2022-09-20T13:41:20.998Z,100968.09
2022-09-20T13:46:24.962Z,100951.22
2022-09-20T13:51:31.595Z,100961.97
2022-09-20T13:56:32.927Z,100946.22
2022-09-20T14:01:32.659Z,100947.91
2022-09-20T14:06:34.635Z,100911.78
2022-09-20T14:11:35.761Z,100960.38
2022-09-20T14:16:39.249Z,100945.78
2022-09-20T14:21:38.476Z,100949.63
2022-09-20T14:26:50.977Z,100944.97
2022-09-20T14:31:54.206Z,100956.66
2022-09-20T14:37:06.537Z,100958.72
2022-09-20T14:42:36.761Z,100958.94
2022-09-20T14:47:54.436Z,100958.34
2022-09-20T14:53:06.494Z,100983.31
2022-09-20T14:58:12.377Z,100970.22
2022-09-20T15:03:12.915Z,100966.41
2022-09-20T15:08:13.253Z,100974.22
2022-09-20T15:13:16.852Z,100953.91
2022-09-20T15:18:29.202Z,100965.22
2022-09-20T15:23:32.028Z,100939.06
2022-09-20T15:28:33.684Z,100950.44
2022-09-20T15:33:34.272Z,100960.47
2022-09-20T15:38:33.763Z,100965.59
2022-09-20T15:43:36.404Z,100959.94
2022-09-20T15:48:38.444Z,100967.91
2022-09-20T15:53:48.964Z,100984.53
2022-09-20T15:58:53.028Z,100965.16
2022-09-20T16:03:53.710Z,100990.19
2022-09-20T16:08:52.460Z,100992.28
2022-09-20T16:13:57.725Z,101000.41
2022-09-20T16:19:15.566Z,100983.41
2022-09-20T16:24:13.915Z,101011.59
2022-09-20T16:29:14.050Z,101012.59
2022-09-20T16:34:18.804Z,101000.41
2022-09-20T16:39:19.918Z,101013.41
2022-09-20T16:44:18.888Z,101003.88
2022-09-20T16:49:17.309Z,100998.19
2022-09-20T16:54:16.460Z,101022.13
2022-09-20T16:59:19.392Z,101025.38
2022-09-20T17:04:21.364Z,101024.34
2022-09-20T17:09:32.193Z,101033.69
2022-09-20T17:14:34.392Z,101043.84
2022-09-20T17:19:36.043Z,101034.25
2022-09-20T17:24:37.075Z,101044.56
2022-09-20T17:29:36.887Z,101017.47
2022-09-20T17:34:41.374Z,101037.94
2022-09-20T17:39:41.393Z,101066.19
2022-09-20T17:44:43.990Z,101043.06
2022-09-20T17:49:49.173Z,101042.78
2022-09-20T17:54:46.947Z,101079.88
2022-09-20T17:59:45.640Z,101065.19
2022-09-20T18:04:44.913Z,101070.97
2022-09-20T18:09:52.144Z,101057.88
2022-09-20T18:14:52.293Z,101071.78
2022-09-20T18:20:18.108Z,101080.31
2022-09-20T18:25:16.776Z,101070.88
2022-09-20T18:30:18.014Z,101072.72
2022-09-20T18:35:18.630Z,101055.03
2022-09-20T18:40:16.035Z,101065.53
2022-09-20T18:45:17.800Z,101088.66
2022-09-20T18:50:15.964Z,101064.50
2022-09-20T18:55:14.911Z,101040.28
2022-09-20T19:00:13.612Z,101080.94
2022-09-20T19:05:18.494Z,101046.69
2022-09-20T19:10:45.643Z,101099.16
2022-09-20T19:16:08.959Z,101061.94
2022-09-20T19:21:28.952Z,101099.16
2022-09-20T19:26:30.964Z,101066.50
2022-09-20T19:31:33.297Z,101094.69
2022-09-20T19:36:36.524Z,101109.81
2022-09-20T19:41:55.134Z,101085.28
2022-09-20T19:47:07.862Z,101117.91
2022-09-20T19:52:08.827Z,101100.25
2022-09-20T19:57:12.664Z,101060.78
2022-09-20T20:02:25.920Z,101097.53
2022-09-20T20:07:47.733Z,101108.13
2022-09-20T20:13:33.781Z,101122.44
2022-09-20T20:18:54.674Z,101132.88
2022-09-20T20:24:05.188Z,101126.44
2022-09-20T20:29:04.954Z,101078.63
2022-09-20T20:34:02.759Z,101129.81
2022-09-20T20:39:02.753Z,101131.44
2022-09-20T20:44:05.336Z,101117.41
2022-09-20T20:49:05.778Z,101127.53
2022-09-20T20:54:03.553Z,101102.00
2022-09-20T20:59:04.541Z,101136.97
2022-09-20T21:04:03.663Z,101131.31
2022-09-20T21:09:02.193Z,101127.06
2022-09-20T21:14:02.509Z,101127.38
2022-09-20T21:19:02.262Z,101148.94
2022-09-20T21:24:02.782Z,101139.91
2022-09-20T21:29:16.458Z,101140.78
2022-09-20T21:34:16.419Z,101162.00
2022-09-20T21:39:14.689Z,101134.31
2022-09-20T21:44:14.426Z,101138.16
2022-09-20T21:49:17.565Z,101141.19
2022-09-20T21:54:15.776Z,101148.56
2022-09-20T21:59:16.164Z,101137.91
2022-09-20T22:04:15.446Z,101162.47
2022-09-20T22:09:15.950Z,101150.06
2022-09-20T22:14:16.383Z,101136.78
2022-09-20T22:19:17.546Z,101143.03
2022-09-20T22:24:16.795Z,101149.34
2022-09-20T22:29:15.838Z,101139.16
2022-09-20T22:34:19.239Z,101166.19
2022-09-20T22:39:18.211Z,101164.13
2022-09-20T22:44:16.623Z,101136.94
2022-09-20T22:49:17.303Z,101131.00
2022-09-20T22:54:16.222Z,101146.88
2022-09-20T22:59:15.146Z,101130.22
2022-09-20T23:04:19.315Z,101130.38
2022-09-20T23:09:18.921Z,101136.66
2022-09-20T23:14:21.859Z,101143.84
2022-09-20T23:19:21.893Z,101154.50
2022-09-20T23:24:21.283Z,101134.91
2022-09-20T23:29:22.706Z,101173.66
2022-09-20T23:34:20.254Z,101177.22
2022-09-20T23:39:23.255Z,101144.97
2022-09-20T23:44:24.993Z,101145.94
2022-09-20T23:49:27.695Z,101147.16
2022-09-20T23:54:26.185Z,101147.13
2022-09-20T23:59:25.103Z,101161.84
